Latest Coastal Weather Observations for Coconut Island

IDQ60701

Issued at 11:11 pm EST Monday 20 February 2017 (issued every 10 minutes, with the page automatically refreshed every 10 minutes)

About coastal observations | Map of coastal stations | Coastal observations for QLD | Marine services | Other Formats
Station Details ID: 027054 Name: COCONUT ISLAND Lat: -10.05 Lon: 143.07 Height: 3.5 m
Data from the previous 72 hours. | See also: Recent months at Coconut Island
Date/Time
EST
Temp
°C
Wind Pressure Rain since
9am
mm
Weather Cloud Vis
km
Sea
Height
m
Swell
Dir  Spd
kts
Gust
kts
hPa Trend Height
m
Period
s
Dir
20/11:00pm 28.4 NNW 3 5 1010.3 - 0.0 - - - - - - -
20/10:30pm 28.4 NNW 3 4 1010.4 - 0.0 - - - - - - -
20/10:00pm 28.3 NW 3 5 1010.5 - 0.0 - - - - - - -
20/09:30pm 28.2 NW 4 6 1010.2 - 0.0 - - - - - - -
20/09:00pm 28.2 WNW 4 6 1010.1 - 0.0 - - - - - - -
20/08:30pm 28.4 WNW 4 7 1010.1 - 0.0 - - - - - - -
20/08:00pm 28.2 WNW 4 8 1009.9 - 0.0 - - - - - - -
20/07:30pm 28.4 WNW 5 8 1009.4 - 0.0 - - - - - - -
20/07:00pm 28.5 WNW 6 9 1008.9 - 0.0 - - - - - - -
20/06:30pm 28.9 WNW 6 10 1008.5 - 0.0 - - - - - - -
20/06:00pm 29.2 WNW 7 12 1008.2 - 0.0 - - - - - - -
20/05:30pm 29.4 NW 8 12 1007.9 - 0.0 - - - - - - -
20/05:00pm 29.4 NW 8 11 1007.6 - 0.0 - - - - - - -
20/04:30pm 29.7 NNW 7 10 1007.4 - 0.0 - - - - - - -
20/04:00pm 29.8 NNW 9 12 1007.2 - 0.0 - - - - - - -
20/03:30pm 30.1 NW 6 9 1007.3 - 0.0 - - - - - - -
20/03:00pm 30.4 NW 7 10 1007.3 - 0.0 - - - - - - -
20/02:30pm 30.9 NNW 7 9 1007.7 - 0.0 - - - - - - -
20/02:00pm 31.3 NNW 8 10 1008.1 - 0.0 - - - - - - -
20/01:30pm 31.3 NNW 9 12 1008.5 - 0.0 - - - - - - -
20/01:00pm 31.0 N 9 13 1009.1 - 0.0 - - - - - - -
20/12:30pm 30.5 N 10 13 1009.8 - 0.0 - - - - - - -
20/12:00pm 30.5 N 9 13 1010.4 - 0.0 - - - - - - -
20/11:30am 30.1 N 10 14 1010.8 - 0.0 - - - - - - -
20/11:00am 30.6 N 10 15 1011.2 - 0.0 - - - - - - -
20/10:30am 29.7 N 11 15 1011.5 - 0.0 - - - - - - -
20/10:00am 29.2 N 12 17 1011.5 - 0.0 - - - - - - -
20/09:30am 28.8 N 12 16 1011.5 - 0.0 - - - - - - -
20/09:00am 28.2 N 13 18 1011.3 - 0.0 - - - - - - -
20/08:30am 28.0 N 13 18 1010.9 - 0.0 - - - - - - -
20/08:00am 27.8 N 12 16 1010.8 - 0.0 - - - - - - -
20/07:30am 27.7 N 13 17 1010.3 - 0.0 - - - - - - -
20/07:00am 27.6 N 15 19 1009.5 - 0.0 - - - - - - -
20/06:30am 27.6 N 13 17 1009.4 - 0.0 - - - - - - -
20/06:00am 27.8 N 12 15 1009.2 - 0.0 - - - - - - -
20/05:30am 27.8 N 7 10 1008.9 - 0.0 - - - - - - -
20/05:00am 27.4 N 8 10 1008.4 - 0.0 - - - - - - -
20/04:30am 27.1 NNE 4 6 1008.4 - 0.0 - - - - - - -
20/04:00am 27.1 NNE 3 5 1008.1 - 0.0 - - - - - - -
20/03:30am 27.2 N 2 3 1008.4 - 0.0 - - - - - - -
20/03:00am 27.1 N 2 3 1008.3 - 0.0 - - - - - - -
20/02:30am 27.0 NW 3 4 1007.8 - 0.0 - - - - - - -
20/02:00am 26.9 NNW 4 6 1008.1 - 0.0 - - - - - - -
20/01:30am 26.7 NW 5 7 1008.8 - 0.0 - - - - - - -
20/01:00am 26.7 N 5 7 1009.1 - 0.0 - - - - - - -
20/12:30am 26.4 N 6 9 1009.3 - 0.0 - - - - - - -
20/12:00am 27.2 NE 3 12 1009.3 - 0.0 - - - - - - -
 
Date/Time
EST
Temp
°C
Wind Pressure Rain since
9am
mm
Weather Cloud Vis
km
Sea
Height
m
Swell
Dir  Spd
kts
Gust
kts
hPa Trend Height
m
Period
s
Dir
19/11:30pm 27.3 E 2 3 1009.4 - 0.0 - - - - - - -
19/11:00pm 27.5 E 2 4 1009.6 - 0.0 - - - - - - -
19/10:30pm 27.5 E 2 4 1009.5 - 0.0 - - - - - - -
19/10:00pm 27.6 CALM 0 0 1009.3 - 0.0 - - - - - - -
19/09:30pm 27.7 CALM 0 0 1009.2 - 0.0 - - - - - - -
19/09:00pm 28.0 CALM 0 1 1008.8 - 0.0 - - - - - - -
19/08:30pm 28.4 WSW 3 5 1008.3 - 0.0 - - - - - - -
19/08:00pm 28.4 WSW 2 5 1008.0 - 0.0 - - - - - - -
19/07:30pm 28.3 WSW 2 4 1007.5 - 0.0 - - - - - - -
19/07:00pm 28.5 SW 2 4 1007.0 - 0.0 - - - - - - -
19/06:30pm 29.1 SW 1 3 1006.8 - 0.0 - - - - - - -
19/06:00pm 29.9 WSW 1 3 1006.5 - 0.0 - - - - - - -
19/05:30pm 30.5 SW 2 3 1006.3 - 0.0 - - - - - - -
19/05:00pm 31.3 W 3 6 1006.1 - 0.0 - - - - - - -
19/04:30pm 30.6 W 4 6 1005.9 - 0.0 - - - - - - -
19/04:00pm 30.0 WNW 3 6 1006.0 - 0.0 - - - - - - -
19/03:30pm 30.2 WNW 5 7 1006.6 - 0.0 - - - - - - -
19/03:00pm 30.2 WNW 4 7 1007.0 - 0.0 - - - - - - -
19/02:30pm 30.3 NW 4 5 1007.5 - 0.0 - - - - - - -
19/02:00pm 30.0 NW 5 7 1008.2 - 0.0 - - - - - - -
19/01:30pm 29.9 NW 6 9 1008.6 - 0.0 - - - - - - -
19/01:00pm 30.2 NNW 8 11 1009.2 - 0.0 - - - - - - -
19/12:30pm 32.0 NNW 7 10 1009.5 - 0.0 - - - - - - -
19/12:00pm 32.0 NNW 8 10 1009.7 - 0.0 - - - - - - -
19/11:30am 31.2 NNW 8 11 1010.1 - 0.0 - - - - - - -
19/11:00am 31.2 NNW 8 11 1010.2 - 0.0 - - - - - - -
19/10:30am 31.4 NNW 8 12 1010.4 - 0.0 - - - - - - -
19/10:00am 30.6 NW 7 10 1010.5 - 0.0 - - - - - - -
19/09:30am 29.4 NW 8 12 1010.7 - 0.0 - - - - - - -
19/09:00am 29.1 NNW 10 13 1011.0 - 0.0 - - - - - - -
19/08:30am 29.3 NNW 9 12 1010.8 - 0.0 - - - - - - -
19/08:00am 29.3 NW 7 11 1010.5 - 0.0 - - - - - - -
19/07:30am 28.6 NW 7 11 1010.2 - 0.0 - - - - - - -
19/07:00am 28.2 NNW 7 9 1009.7 - 0.0 - - - - - - -
19/06:30am 27.9 NNW 7 9 1009.5 - 0.0 - - - - - - -
19/06:00am 27.8 NNW 6 9 1009.3 - 0.0 - - - - - - -
19/05:30am 27.7 NNW 6 7 1009.0 - 0.0 - - - - - - -
19/05:00am 27.5 NNW 6 8 1009.0 - 0.0 - - - - - - -
19/04:30am 27.6 NNW 6 8 1008.9 - 0.0 - - - - - - -
19/04:00am 27.6 NNW 6 8 1009.0 - 0.0 - - - - - - -
19/03:30am 27.8 NNW 6 8 1009.0 - 0.0 - - - - - - -
19/03:00am 27.6 N 7 10 1009.2 - 0.0 - - - - - - -
19/02:30am 27.9 N 7 10 1009.5 - 0.0 - - - - - - -
19/02:00am 28.4 NNE 5 7 1009.8 - 0.0 - - - - - - -
19/01:30am 28.3 NNE 5 7 1010.0 - 0.0 - - - - - - -
19/01:00am 28.3 NNE 6 9 1010.2 - 0.0 - - - - - - -
19/12:30am 28.1 NE 5 7 1010.1 - 0.0 - - - - - - -
19/12:00am 27.8 NE 4 5 1010.4 - 0.0 - - - - - - -
 
Date/Time
EST
Temp
°C
Wind Pressure Rain since
9am
mm
Weather Cloud Vis
km
Sea
Height
m
Swell
Dir  Spd
kts
Gust
kts
hPa Trend Height
m
Period
s
Dir
18/11:30pm 26.4 ENE 2 4 1010.5 - 0.0 - - - - - - -
18/11:00pm 26.5 ENE 2 2 1010.6 - 0.0 - - - - - - -
18/10:30pm 26.8 ENE 1 2 1010.3 - 0.0 - - - - - - -
18/10:00pm 26.8 E 1 2 1010.0 - 0.0 - - - - - - -
18/09:30pm 26.8 CALM 0 0 1010.1 - 0.0 - - - - - - -
18/09:00pm 27.1 CALM 0 0 1009.9 - 0.0 - - - - - - -
18/08:30pm 27.2 CALM 0 0 1009.6 - 0.0 - - - - - - -
18/08:00pm 27.4 CALM 0 0 1009.4 - 0.0 - - - - - - -
18/07:30pm 27.9 CALM 0 1 1009.1 - 0.0 - - - - - - -
18/07:00pm 28.4 WSW 2 4 1008.9 - 0.0 - - - - - - -
18/06:30pm 29.1 WSW 1 3 1008.8 - 0.0 - - - - - - -
18/06:00pm 30.4 SW 2 3 1008.6 - 0.0 - - - - - - -
18/05:30pm 30.6 WSW 1 3 1008.3 - 0.0 - - - - - - -
18/05:00pm 30.5 WNW 2 4 1007.8 - 0.0 - - - - - - -
18/04:30pm 30.2 WNW 3 4 1008.2 - 0.0 - - - - - - -
18/04:00pm 30.5 NW 3 5 1008.3 - 0.0 - - - - - - -
18/03:30pm 30.9 NW 3 5 1008.5 - 0.0 - - - - - - -
18/03:00pm 31.4 NW 3 5 1008.8 - 0.0 - - - - - - -
18/02:30pm 31.2 NNW 4 5 1009.1 - 0.0 - - - - - - -
18/02:00pm 31.8 NW 3 5 1009.5 - 0.0 - - - - - - -
18/01:30pm 31.0 NW 4 5 1009.9 - 0.0 - - - - - - -
18/01:00pm 30.9 NNW 4 5 1010.2 - 0.0 - - - - - - -
18/12:30pm 31.2 NNW 4 5 1010.7 - 0.0 - - - - - - -
18/12:00pm 30.9 NNW 4 6 1011.1 - 0.0 - - - - - - -
18/11:30am 30.7 N 5 7 1011.4 - 0.0 - - - - - - -
18/11:00am 31.1 N 5 6 1011.5 - 0.0 - - - - - - -
18/10:30am 30.7 N 5 6 1011.5 - 0.0 - - - - - - -
18/10:00am 30.0 NNW 6 7 1011.7 - 0.0 - - - - - - -
18/09:30am 30.1 N 6 8 1011.8 - 0.0 - - - - - - -
18/09:00am 29.7 N 6 8 1011.7 - 16.0 - - - - - - -
18/08:30am 29.5 N 6 9 1011.7 - 16.0 - - - - - - -
18/08:00am 28.7 N 6 9 1011.7 - 16.0 - - - - - - -
18/07:30am 28.4 N 6 9 1011.6 - 16.0 - - - - - - -
18/07:00am 28.3 N 8 10 1011.3 - 16.0 - - - - - - -
18/06:30am 28.3 NNE 8 11 1011.0 - 16.0 - - - - - - -
18/06:00am 28.3 NNE 8 11 1010.5 - 16.0 - - - - - - -
18/05:30am 28.3 NNE 8 10 1010.3 - 16.0 - - - - - - -
18/05:00am 28.3 NNE 6 10 1010.2 - 16.0 - - - - - - -
18/04:30am 28.2 NNE 7 10 1010.1 - 16.0 - - - - - - -
18/04:00am 28.2 NNE 7 10 1010.0 - 16.0 - - - - - - -
18/03:30am 28.1 NNE 7 10 1010.0 - 16.0 - - - - - - -
18/03:00am 28.1 NNE 6 9 1009.9 - 16.0 - - - - - - -
18/02:30am 28.1 NE 7 10 1009.8 - 16.0 - - - - - - -
18/02:00am 28.0 NE 7 10 1010.2 - 16.0 - - - - - - -
18/01:30am 28.0 NE 7 9 1010.2 - 16.0 - - - - - - -
18/01:00am 27.9 NE 6 8 1010.7 - 16.0 - - - - - - -
18/12:30am 27.9 NE 6 9 1011.0 - 16.0 - - - - - - -
18/12:00am 27.8 NE 5 9 1010.9 - 16.0 - - - - - - -
 
Date/Time
EST
Temp
°C
Wind Pressure Rain since
9am
mm
Weather Cloud Vis
km
Sea
Height
m
Swell
Dir  Spd
kts
Gust
kts
hPa Trend Height
m
Period
s
Dir
17/11:30pm 27.6 NE 6 8 1011.0 - 16.0 - - - - - - -

Other Formats:

Comma delimited format used in spreadsheet applications
http://www.bom.gov.au/fwo/IDQ60701/IDQ60701.94182.axf

JavaScript Object Notation format (JSON) in row-major order
http://www.bom.gov.au/fwo/IDQ60701/IDQ60701.94182.json